Time;durP1;ratioP1;P1;durP2;ratioP2;P2;SDS_P1;SDS_P2;PMS_P1;PMS_P2;Temp;Humidity;BMP_temperature;BMP_pressure;BME280_temperature;BME280_humidity;BME280_pressure;Samples;Min_cycle;Max_cycle;Signal;HPM_P1;HPM_P2
2023/05/30 00:00:25;;;;;;;14.33;2.23;;;13.00;99.90;;;;;;7286051;19;20189;-80
2023/05/30 00:02:51;;;;;;;16.57;3.37;;;12.90;99.90;;;;;;7286155;19;20196;-80
2023/05/30 00:05:17;;;;;;;13.27;2.27;;;12.90;99.90;;;;;;7288714;19;20211;-80
2023/05/30 00:07:43;;;;;;;17.00;2.90;;;12.90;99.90;;;;;;7308827;19;20282;-79
2023/05/30 00:10:09;;;;;;;12.40;2.50;;;12.90;99.90;;;;;;7285780;19;20191;-79
2023/05/30 00:12:35;;;;;;;17.10;2.73;;;12.90;99.90;;;;;;7284678;19;20194;-79
2023/05/30 00:15:04;;;;;;;11.47;2.60;;;12.90;99.90;;;;;;7287684;19;20213;-79
2023/05/30 00:17:32;;;;;;;15.67;2.70;;;12.80;99.90;;;;;;7285208;19;20197;-79
2023/05/30 00:19:58;;;;;;;10.90;2.23;;;12.80;99.90;;;;;;7284728;19;20198;-79
2023/05/30 00:22:24;;;;;;;13.40;2.67;;;12.80;99.90;;;;;;7284792;19;20200;-79
2023/05/30 00:24:51;;;;;;;14.17;2.20;;;12.70;99.90;;;;;;7285632;19;20199;-79
2023/05/30 00:27:17;;;;;;;18.33;3.07;;;12.60;99.90;;;;;;7290485;19;20193;-79
2023/05/30 00:29:45;;;;;;;11.23;2.40;;;12.50;99.90;;;;;;7307554;19;20185;-78
2023/05/30 00:32:11;;;;;;;16.43;2.70;;;12.60;99.90;;;;;;7286929;19;20217;-78
2023/05/30 00:34:37;;;;;;;18.00;2.80;;;12.60;99.90;;;;;;7286030;19;20224;-79
2023/05/30 00:37:05;;;;;;;20.17;2.77;;;12.60;99.90;;;;;;7285590;19;20540;-79
2023/05/30 00:39:31;;;;;;;13.63;2.60;;;12.60;99.90;;;;;;7286075;19;20763;-79
2023/05/30 00:41:57;;;;;;;17.03;2.80;;;12.50;99.90;;;;;;7282303;19;20260;-79
2023/05/30 00:44:23;;;;;;;14.60;2.37;;;12.40;99.90;;;;;;7283653;19;20196;-79
2023/05/30 00:46:50;;;;;;;12.83;2.13;;;12.40;99.90;;;;;;7284181;19;20221;-79
2023/05/30 00:49:17;;;;;;;13.17;2.47;;;12.40;99.90;;;;;;7293017;19;20196;-79
2023/05/30 00:51:43;;;;;;;20.40;3.20;;;12.40;99.90;;;;;;7306317;19;20187;-79
2023/05/30 00:54:09;;;;;;;13.20;2.30;;;12.40;99.90;;;;;;7284454;19;20221;-79
2023/05/30 00:56:36;;;;;;;12.97;2.23;;;12.40;99.90;;;;;;7282812;19;20673;-78
2023/05/30 00:59:02;;;;;;;15.03;2.87;;;12.30;99.90;;;;;;7282689;19;20192;-79
2023/05/30 01:01:29;;;;;;;15.07;2.63;;;12.20;99.90;;;;;;7282226;19;20652;-79
2023/05/30 01:03:56;;;;;;;12.90;2.70;;;12.30;99.90;;;;;;7285027;19;20714;-78
2023/05/30 01:06:27;;;;;;;20.43;3.20;;;12.30;99.90;;;;;;7282229;19;20697;-78
2023/05/30 01:08:54;;;;;;;12.73;2.13;;;12.10;99.90;;;;;;7284512;19;20199;-79
2023/05/30 01:11:44;;;;;;;16.00;2.50;;;12.10;99.90;;;;;;7284513;19;20218;-79
2023/05/30 01:14:13;;;;;;;14.70;2.43;;;12.10;99.90;;;;;;7283599;19;20189;-79
2023/05/30 01:16:49;;;;;;;15.17;2.87;;;12.10;99.90;;;;;;7283538;19;20545;-79
2023/05/30 01:19:50;;;;;;;16.10;2.87;;;12.10;99.90;;;;;;7266034;19;20187;-79
2023/05/30 01:22:36;;;;;;;14.90;2.27;;;12.10;99.90;;;;;;7267635;19;20188;-80
2023/05/30 01:25:24;;;;;;;12.83;2.23;;;11.90;99.90;;;;;;7281375;19;20199;-79
2023/05/30 01:28:07;;;;;;;14.93;2.43;;;11.90;99.90;;;;;;7261648;19;20186;-79
2023/05/30 01:31:01;;;;;;;13.43;2.57;;;11.80;99.90;;;;;;7282786;19;20580;-79
2023/05/30 01:33:29;;;;;;;12.17;2.47;;;11.90;99.90;;;;;;7179320;19;2004868;-79
2023/05/30 01:35:55;;;;;;;22.07;3.10;;;11.80;99.90;;;;;;7283541;19;20219;-79
2023/05/30 01:38:21;;;;;;;15.00;2.63;;;11.80;99.90;;;;;;7283223;19;20191;-80
2023/05/30 01:40:52;;;;;;;14.40;2.97;;;11.70;99.90;;;;;;7293295;19;20570;-79
2023/05/30 01:43:29;;;;;;;18.93;3.23;;;11.80;99.90;;;;;;7282966;19;20674;-79
2023/05/30 01:45:55;;;;;;;14.53;2.40;;;11.70;99.90;;;;;;7283056;19;20231;-79
2023/05/30 01:48:46;;;;;;;16.63;2.70;;;11.60;99.90;;;;;;7283195;19;20258;-79
2023/05/30 01:51:18;;;;;;;15.80;2.37;;;11.70;99.90;;;;;;7282229;19;20188;-79
2023/05/30 01:53:50;;;;;;;17.27;2.83;;;11.60;99.90;;;;;;7288212;19;20199;-79
2023/05/30 01:56:17;;;;;;;11.87;2.27;;;11.60;99.90;;;;;;7286859;19;20194;-79
2023/05/30 01:58:47;;;;;;;20.07;3.13;;;11.60;99.90;;;;;;7311702;19;20191;-79
2023/05/30 02:01:15;;;;;;;15.50;2.83;;;11.60;99.90;;;;;;7290782;19;20197;-79
2023/05/30 02:03:40;;;;;;;14.40;2.30;;;11.40;99.90;;;;;;7290213;19;20191;-79
2023/05/30 02:06:06;;;;;;;12.57;2.77;;;11.40;99.90;;;;;;7288133;19;20208;-79
2023/05/30 02:08:32;;;;;;;16.83;2.70;;;11.30;99.90;;;;;;7290013;19;20573;-78
2023/05/30 02:10:57;;;;;;;15.67;2.73;;;11.30;99.90;;;;;;7289143;19;20515;-79
2023/05/30 02:13:23;;;;;;;20.07;3.00;;;11.20;99.90;;;;;;7288261;19;20714;-79
2023/05/30 02:15:49;;;;;;;14.53;2.73;;;11.30;99.90;;;;;;7289322;19;20635;-79
2023/05/30 02:18:15;;;;;;;14.57;2.90;;;11.30;99.90;;;;;;7310320;19;20194;-79
2023/05/30 02:20:41;;;;;;;14.70;2.50;;;11.30;99.90;;;;;;7288358;19;20537;-79
2023/05/30 02:23:08;;;;;;;16.47;3.53;;;11.20;99.90;;;;;;7289481;19;20199;-79
2023/05/30 02:25:33;;;;;;;15.47;2.70;;;11.30;99.90;;;;;;7287230;19;20283;-79
2023/05/30 02:27:59;;;;;;;14.90;2.50;;;11.20;99.90;;;;;;7288123;19;20757;-79
2023/05/30 02:30:28;;;;;;;18.03;3.40;;;11.20;99.90;;;;;;7289091;19;20192;-79
2023/05/30 02:32:54;;;;;;;18.23;2.90;;;11.20;99.90;;;;;;7288082;19;20741;-79
2023/05/30 02:35:20;;;;;;;16.87;2.97;;;11.10;99.90;;;;;;7289487;19;20523;-79
2023/05/30 02:37:47;;;;;;;15.63;3.23;;;11.10;99.90;;;;;;7302128;19;20544;-79
2023/05/30 02:40:13;;;;;;;14.40;2.93;;;11.20;99.90;;;;;;7305474;19;20194;-79
2023/05/30 02:42:38;;;;;;;18.40;3.30;;;11.20;99.90;;;;;;7288377;19;20533;-79
2023/05/30 02:45:04;;;;;;;16.30;2.90;;;11.10;99.90;;;;;;7286315;19;20182;-79
2023/05/30 02:47:33;;;;;;;17.23;3.00;;;11.00;99.90;;;;;;7286470;19;20527;-79
2023/05/30 02:49:59;;;;;;;20.80;3.07;;;11.10;99.90;;;;;;7287991;19;20238;-79
2023/05/30 02:52:25;;;;;;;22.10;3.43;;;11.10;99.90;;;;;;7285743;19;20180;-79
2023/05/30 02:54:56;;;;;;;21.27;3.27;;;11.00;99.90;;;;;;7287246;19;20184;-79
2023/05/30 02:57:40;;;;;;;17.93;3.57;;;11.10;99.90;;;;;;7288322;19;20191;-79
2023/05/30 03:00:17;;;;;;;20.03;2.87;;;11.00;99.90;;;;;;7280825;19;20576;-79
2023/05/30 03:02:54;;;;;;;17.60;3.30;;;11.00;99.90;;;;;;7287520;19;20180;-80
2023/05/30 03:05:20;;;;;;;12.63;2.77;;;10.90;99.90;;;;;;7286018;19;20223;-79
2023/05/30 03:07:46;;;;;;;17.87;2.90;;;11.00;99.90;;;;;;7305759;19;20173;-79
2023/05/30 03:10:12;;;;;;;16.50;2.67;;;10.90;99.90;;;;;;7300501;19;20191;-79
2023/05/30 03:12:45;;;;;;;13.63;2.80;;;11.00;99.90;;;;;;7285151;19;20293;-78
2023/05/30 03:15:11;;;;;;;18.23;2.93;;;11.00;99.90;;;;;;7287428;19;20186;-79
2023/05/30 03:17:38;;;;;;;12.77;2.70;;;10.80;99.90;;;;;;7286553;19;20554;-79
2023/05/30 03:20:06;;;;;;;15.83;2.77;;;10.80;99.90;;;;;;7285418;19;20203;-79
2023/05/30 03:22:34;;;;;;;17.30;3.30;;;10.80;99.90;;;;;;7287218;19;20199;-79
2023/05/30 03:25:02;;;;;;;17.77;3.33;;;10.90;99.90;;;;;;7286286;19;20247;-79
2023/05/30 03:27:28;;;;;;;19.10;3.10;;;10.70;99.90;;;;;;7285458;19;20195;-79
2023/05/30 03:29:56;;;;;;;15.50;3.20;;;10.70;99.90;;;;;;7287322;19;20222;-79
2023/05/30 03:32:22;;;;;;;12.93;2.90;;;10.60;99.90;;;;;;7286576;19;20263;-79
2023/05/30 03:34:49;;;;;;;15.40;3.10;;;10.60;99.90;;;;;;7286636;19;20588;-79
2023/05/30 03:37:20;;;;;;;18.30;3.97;;;10.70;99.90;;;;;;7286975;19;20195;-79
2023/05/30 03:39:46;;;;;;;19.83;3.53;;;10.70;99.90;;;;;;7304769;19;20273;-79
2023/05/30 03:42:12;;;;;;;19.40;4.03;;;10.60;99.90;;;;;;7298855;19;20188;-79
2023/05/30 03:44:38;;;;;;;19.23;3.30;;;10.60;99.90;;;;;;7286704;19;20206;-79
2023/05/30 03:47:06;;;;;;;20.53;3.57;;;10.70;99.90;;;;;;7284524;19;20264;-79
2023/05/30 03:49:31;;;;;;;20.10;3.77;;;10.70;99.90;;;;;;7287780;19;20226;-79
2023/05/30 03:51:57;;;;;;;20.13;3.73;;;10.60;99.90;;;;;;7286455;19;20255;-79
2023/05/30 03:54:23;;;;;;;19.83;3.47;;;10.70;99.90;;;;;;7286994;19;20190;-79
2023/05/30 03:56:48;;;;;;;12.63;3.20;;;10.70;99.90;;;;;;7285410;19;20194;-79
2023/05/30 03:59:15;;;;;;;19.00;3.70;;;10.70;99.90;;;;;;7306847;19;20258;-79
2023/05/30 04:01:41;;;;;;;19.90;3.70;;;10.70;99.90;;;;;;7285991;19;20696;-79
2023/05/30 04:04:07;;;;;;;17.07;3.90;;;10.80;99.90;;;;;;7285114;19;20202;-79
2023/05/30 04:06:34;;;;;;;19.83;3.77;;;10.80;99.90;;;;;;7285673;19;20199;-79
2023/05/30 04:09:03;;;;;;;20.57;3.87;;;10.80;99.90;;;;;;7284920;19;20659;-79
2023/05/30 04:11:31;;;;;;;19.30;3.67;;;10.80;99.90;;;;;;7284606;19;20224;-79
2023/05/30 04:13:59;;;;;;;25.03;3.90;;;10.80;99.90;;;;;;7284440;19;20527;-79
2023/05/30 04:16:24;;;;;;;22.13;3.80;;;10.90;99.90;;;;;;7284942;19;20199;-79
2023/05/30 04:18:50;;;;;;;18.53;4.20;;;10.80;99.90;;;;;;7284628;19;20192;-79
2023/05/30 04:21:16;;;;;;;20.50;4.40;;;10.70;99.90;;;;;;7308123;19;20194;-79
2023/05/30 04:23:43;;;;;;;16.97;3.40;;;10.80;99.90;;;;;;7285660;19;20194;-79
2023/05/30 04:26:12;;;;;;;16.73;3.67;;;10.80;99.90;;;;;;7283917;19;20205;-79
2023/05/30 04:28:38;;;;;;;23.97;4.20;;;11.00;99.90;;;;;;7286756;19;20188;-79
2023/05/30 04:31:08;;;;;;;25.13;3.73;;;11.00;99.90;;;;;;7284617;19;20263;-79
2023/05/30 04:33:35;;;;;;;23.37;4.20;;;11.20;99.90;;;;;;7284868;19;20196;-79
2023/05/30 04:36:04;;;;;;;18.00;4.27;;;11.40;99.90;;;;;;7286107;19;20333;-79
2023/05/30 04:38:32;;;;;;;24.63;4.33;;;11.90;99.90;;;;;;7284392;19;20579;-79
2023/05/30 04:41:00;;;;;;;20.33;3.57;;;12.20;99.90;;;;;;7281859;19;20209;-79
2023/05/30 04:43:27;;;;;;;21.40;4.27;;;12.80;99.90;;;;;;7285746;19;20203;-79
2023/05/30 04:45:53;;;;;;;17.00;3.70;;;13.20;99.90;;;;;;7284649;19;20705;-79
2023/05/30 04:48:18;;;;;;;16.57;3.53;;;13.30;99.90;;;;;;7283700;19;20227;-80
2023/05/30 04:50:46;;;;;;;16.93;3.63;;;13.70;99.90;;;;;;7306338;19;20196;-79
2023/05/30 04:53:15;;;;;;;17.27;4.10;;;13.90;99.90;;;;;;7285438;19;20201;-80
2023/05/30 04:55:44;;;;;;;18.30;3.63;;;14.10;99.90;;;;;;7285825;19;20201;-79
2023/05/30 04:58:13;;;;;;;18.67;3.83;;;14.10;99.90;;;;;;7283525;19;20194;-79
2023/05/30 05:00:40;;;;;;;24.50;4.20;;;14.20;99.90;;;;;;7283010;19;20341;-79
2023/05/30 05:03:06;;;;;;;18.07;3.80;;;14.20;99.90;;;;;;7282878;19;20203;-78
2023/05/30 05:05:33;;;;;;;27.17;3.90;;;14.50;99.90;;;;;;7282447;19;20198;-79
2023/05/30 05:07:58;;;;;;;17.67;4.17;;;14.40;99.90;;;;;;7282788;19;20252;-79
2023/05/30 05:10:24;;;;;;;17.97;3.90;;;14.30;99.90;;;;;;7283193;19;20275;-78
2023/05/30 05:12:50;;;;;;;17.53;3.43;;;14.60;99.90;;;;;;7282694;19;20182;-78
2023/05/30 05:15:15;;;;;;;16.33;3.70;;;15.00;99.90;;;;;;7307796;19;20663;-79
2023/05/30 05:17:42;;;;;;;22.80;3.80;;;14.80;99.90;;;;;;7285985;19;20192;-80
2023/05/30 05:20:08;;;;;;;24.30;4.33;;;14.80;99.90;;;;;;7282492;19;20606;-80
2023/05/30 05:22:35;;;;;;;18.63;4.23;;;15.30;99.90;;;;;;7283464;19;20238;-81
2023/05/30 05:25:01;;;;;;;25.83;4.83;;;15.60;99.90;;;;;;7283874;19;20204;-84
2023/05/30 05:27:28;;;;;;;25.20;4.70;;;15.80;99.90;;;;;;7281172;19;20947;-80
2023/05/30 05:29:54;;;;;;;19.83;4.00;;;16.60;99.90;;;;;;7284677;19;20290;-79
2023/05/30 05:32:19;;;;;;;16.57;3.97;;;16.60;99.90;;;;;;7281875;19;20291;-80
2023/05/30 05:34:45;;;;;;;21.60;4.10;;;16.80;99.90;;;;;;7305364;19;20192;-81
2023/05/30 05:37:11;;;;;;;21.43;3.80;;;17.10;99.90;;;;;;7279591;19;20188;-79
2023/05/30 05:39:36;;;;;;;19.97;4.10;;;17.50;99.90;;;;;;7283037;19;20228;-79
2023/05/30 05:42:02;;;;;;;19.97;4.00;;;16.20;99.90;;;;;;7280687;19;20198;-79
2023/05/30 05:44:30;;;;;;;19.83;4.07;;;16.10;99.90;;;;;;7282731;19;20660;-80
2023/05/30 05:46:56;;;;;;;24.97;4.47;;;16.50;99.90;;;;;;7280962;19;20188;-81
2023/05/30 05:49:22;;;;;;;24.43;4.33;;;16.70;99.90;;;;;;7283976;19;20206;-79
2023/05/30 05:51:48;;;;;;;20.90;4.23;;;17.50;99.90;;;;;;7291713;19;20184;-80
2023/05/30 05:54:14;;;;;;;24.63;4.43;;;18.70;99.90;;;;;;7304600;19;20684;-80
2023/05/30 05:56:40;;;;;;;19.73;4.27;;;18.90;99.90;;;;;;7282992;19;20196;-81
2023/05/30 05:59:06;;;;;;;18.43;4.10;;;17.80;99.90;;;;;;7281646;19;20990;-80
2023/05/30 06:01:31;;;;;;;24.47;4.20;;;17.40;99.90;;;;;;7280735;19;20252;-80
2023/05/30 06:03:57;;;;;;;20.73;4.40;;;17.80;99.90;;;;;;7282952;19;20247;-80
2023/05/30 06:06:23;;;;;;;15.87;3.80;;;18.70;99.90;;;;;;7280632;19;20559;-80
2023/05/30 06:08:48;;;;;;;17.83;3.83;;;18.10;99.90;;;;;;7280590;19;20239;-80
2023/05/30 06:11:14;;;;;;;17.83;3.90;;;17.70;99.90;;;;;;7303480;19;20281;-80
2023/05/30 06:13:40;;;;;;;26.30;4.17;;;17.30;99.90;;;;;;7279859;19;20191;-81
2023/05/30 06:16:06;;;;;;;16.10;3.53;;;17.10;99.90;;;;;;7281421;19;20538;-80
2023/05/30 06:18:31;;;;;;;15.37;3.93;;;17.10;99.90;;;;;;7282278;19;20181;-80
2023/05/30 06:20:57;;;;;;;16.67;3.93;;;16.70;99.90;;;;;;7280826;19;20192;-80
2023/05/30 06:23:23;;;;;;;18.17;4.33;;;16.60;99.90;;;;;;7281833;19;20551;-80
2023/05/30 06:25:48;;;;;;;23.73;4.20;;;16.70;99.90;;;;;;7280068;19;20196;-80
2023/05/30 06:28:14;;;;;;;16.93;4.17;;;17.20;99.90;;;;;;7302204;19;20692;-80
2023/05/30 06:30:40;;;;;;;17.53;3.40;;;17.60;99.90;;;;;;7282341;19;20191;-81
2023/05/30 06:33:06;;;;;;;18.50;3.93;;;17.80;99.90;;;;;;7281770;19;20191;-80
2023/05/30 06:35:31;;;;;;;22.33;3.93;;;17.40;99.90;;;;;;7280338;19;20210;-80
2023/05/30 06:37:57;;;;;;;18.07;3.60;;;17.20;99.90;;;;;;7282509;19;20217;-80
2023/05/30 06:40:23;;;;;;;16.47;3.90;;;17.50;99.90;;;;;;7286322;19;20196;-81
2023/05/30 06:42:48;;;;;;;15.63;3.77;;;17.70;99.90;;;;;;7288941;19;20188;-80
2023/05/30 06:45:14;;;;;;;16.43;4.27;;;18.10;99.90;;;;;;7310097;19;20663;-80
2023/05/30 06:47:40;;;;;;;17.07;3.70;;;17.80;99.90;;;;;;7288554;19;20193;-80
2023/05/30 06:50:07;;;;;;;16.13;3.57;;;17.80;99.90;;;;;;7288490;19;20218;-80
2023/05/30 06:52:33;;;;;;;20.77;4.83;;;18.00;99.90;;;;;;7287485;19;20197;-80
2023/05/30 06:55:00;;;;;;;15.83;4.10;;;18.20;99.90;;;;;;7289193;19;20192;-80
2023/05/30 06:57:26;;;;;;;18.97;3.60;;;18.00;99.90;;;;;;7288160;19;20233;-79
2023/05/30 06:59:51;;;;;;;18.87;4.10;;;18.00;99.90;;;;;;7288164;19;20189;-80
2023/05/30 07:02:17;;;;;;;17.50;4.00;;;18.00;99.90;;;;;;7303789;19;20561;-80
2023/05/30 07:04:43;;;;;;;17.90;4.00;;;18.40;99.90;;;;;;7301368;19;20192;-80
2023/05/30 07:07:09;;;;;;;20.17;3.87;;;18.90;99.90;;;;;;7287296;19;20197;-80
2023/05/30 07:09:35;;;;;;;21.43;4.43;;;19.20;99.90;;;;;;7288138;19;20185;-80
2023/05/30 07:12:00;;;;;;;17.50;4.27;;;19.90;99.90;;;;;;7286711;19;20189;-80
2023/05/30 07:14:26;;;;;;;17.43;4.67;;;20.40;99.90;;;;;;7287346;19;20197;-80
2023/05/30 07:16:52;;;;;;;18.57;3.80;;;20.50;99.90;;;;;;7287973;19;20214;-80
2023/05/30 07:19:18;;;;;;;19.07;4.07;;;20.50;99.90;;;;;;7295093;19;20188;-80
2023/05/30 07:21:44;;;;;;;19.47;4.00;;;20.70;99.90;;;;;;7308954;19;20195;-80
2023/05/30 07:24:09;;;;;;;15.37;3.80;;;20.50;99.90;;;;;;7286798;19;20187;-80
2023/05/30 07:26:35;;;;;;;18.47;4.30;;;21.00;99.90;;;;;;7284250;19;20193;-81
2023/05/30 07:29:01;;;;;;;13.93;3.63;;;20.30;99.90;;;;;;7287874;19;20197;-81
2023/05/30 07:31:27;;;;;;;17.47;4.20;;;20.20;99.90;;;;;;7290894;19;20264;-80
2023/05/30 07:33:53;;;;;;;18.10;4.30;;;20.10;99.90;;;;;;7292443;19;20185;-80
2023/05/30 07:36:19;;;;;;;20.67;4.17;;;20.20;99.90;;;;;;7299189;19;20209;-80
2023/05/30 07:38:44;;;;;;;15.50;4.13;;;20.30;99.90;;;;;;7323821;19;20290;-80
2023/05/30 07:41:10;;;;;;;23.70;4.07;;;20.20;99.90;;;;;;7304181;19;20272;-80
2023/05/30 07:43:35;;;;;;;15.87;4.20;;;20.70;99.90;;;;;;7290249;19;20218;-80
2023/05/30 07:46:01;;;;;;;19.70;4.33;;;21.00;99.90;;;;;;7288324;19;20641;-79
2023/05/30 07:48:27;;;;;;;14.63;4.20;;;20.70;99.90;;;;;;7286546;19;20205;-80
2023/05/30 07:50:53;;;;;;;16.07;4.50;;;20.40;99.90;;;;;;7285211;19;20652;-80
2023/05/30 07:53:18;;;;;;;15.83;4.20;;;20.20;99.90;;;;;;7291759;19;20207;-81
2023/05/30 07:55:46;;;;;;;19.10;4.30;;;21.40;99.90;;;;;;7310082;19;20284;-80
2023/05/30 07:58:11;;;;;;;17.40;4.20;;;22.50;99.90;;;;;;7285649;19;20692;-81
2023/05/30 08:00:37;;;;;;;17.40;4.20;;;22.50;99.90;;;;;;7285495;19;20228;-80
2023/05/30 08:03:03;;;;;;;16.93;4.23;;;22.90;99.90;;;;;;7286149;19;20223;-81
2023/05/30 08:05:28;;;;;;;17.27;4.27;;;22.50;99.90;;;;;;7286251;19;20209;-81
2023/05/30 08:07:54;;;;;;;16.47;4.20;;;22.60;99.90;;;;;;7286476;19;20557;-80
2023/05/30 08:10:20;;;;;;;17.83;4.03;;;22.70;99.90;;;;;;7286744;19;20202;-80
2023/05/30 08:12:46;;;;;;;15.57;4.00;;;23.00;99.90;;;;;;7307138;19;20188;-81
2023/05/30 08:15:12;;;;;;;16.43;4.40;;;23.50;99.90;;;;;;7284833;19;20644;-81
2023/05/30 08:17:40;;;;;;;12.47;4.10;;;23.80;99.90;;;;;;7285124;19;20197;-80
2023/05/30 08:20:08;;;;;;;17.02;4.25;;;24.00;99.90;;;;;;7284141;19;20689;-80
2023/05/30 08:22:34;;;;;;;13.70;3.80;;;23.60;99.90;;;;;;7286801;19;20213;-81
2023/05/30 08:25:00;;;;;;;16.37;3.90;;;24.10;99.90;;;;;;7285601;19;20201;-80
2023/05/30 08:27:28;;;;;;;17.50;4.47;;;23.70;99.90;;;;;;7284415;19;20184;-81
2023/05/30 08:29:54;;;;;;;16.70;3.93;;;23.40;99.90;;;;;;7287159;19;20180;-80
2023/05/30 08:32:20;;;;;;;16.75;4.10;;;23.80;99.00;;;;;;7284561;19;20189;-80
2023/05/30 08:34:46;;;;;;;16.37;4.17;;;23.40;98.10;;;;;;7308050;19;20188;-81
2023/05/30 08:37:12;;;;;;;18.40;4.30;;;23.60;98.20;;;;;;7285814;19;20252;-80
2023/05/30 08:39:38;;;;;;;15.07;4.20;;;23.60;98.90;;;;;;7284935;19;20181;-80
2023/05/30 08:42:05;;;;;;;17.20;4.37;;;23.50;97.60;;;;;;7285723;19;20189;-80
2023/05/30 08:44:31;;;;;;;14.50;4.30;;;23.60;97.30;;;;;;7285650;19;20191;-81
2023/05/30 08:46:57;;;;;;;16.07;4.60;;;23.10;96.40;;;;;;7284510;19;20213;-80
2023/05/30 08:49:24;;;;;;;14.23;4.50;;;23.60;97.80;;;;;;7283780;19;20192;-81
2023/05/30 08:51:53;;;;;;;16.63;4.45;;;23.90;96.50;;;;;;7284920;19;20184;-80
2023/05/30 08:54:23;;;;;;;18.08;4.60;;;23.60;97.40;;;;;;7289555;19;20242;-80
2023/05/30 08:57:01;;;;;;;15.23;4.53;;;23.90;97.30;;;;;;7290226;19;20180;-80
2023/05/30 08:59:27;;;;;;;14.07;3.80;;;24.30;97.00;;;;;;7283975;19;20268;-81
2023/05/30 09:01:55;;;;;;;13.40;4.05;;;24.10;95.80;;;;;;7280779;19;20185;-80
2023/05/30 09:04:22;;;;;;;13.77;3.88;;;24.30;95.20;;;;;;7285009;19;20283;-80
2023/05/30 09:06:50;;;;;;;13.82;4.35;;;25.00;94.20;;;;;;7292185;19;20200;-81
2023/05/30 09:09:18;;;;;;;14.35;3.80;;;25.20;94.00;;;;;;7306992;19;20260;-81
2023/05/30 09:11:43;;;;;;;14.18;4.20;;;25.40;91.40;;;;;;7285406;19;20177;-81
2023/05/30 09:14:09;;;;;;;16.38;4.47;;;23.90;93.20;;;;;;7283125;19;20203;-81
2023/05/30 09:16:36;;;;;;;14.38;3.88;;;23.80;95.00;;;;;;7283621;19;20180;-81
2023/05/30 09:19:02;;;;;;;16.92;4.20;;;24.50;95.00;;;;;;7282906;19;20200;-80
2023/05/30 09:21:30;;;;;;;16.10;4.68;;;25.60;94.60;;;;;;7285342;19;20649;-78
2023/05/30 09:24:04;;;;;;;13.13;4.15;;;27.20;91.70;;;;;;7283279;19;20192;-79
2023/05/30 09:26:30;;;;;;;14.90;3.80;;;27.50;89.50;;;;;;7281895;19;20358;-79
2023/05/30 09:29:01;;;;;;;17.50;3.53;;;26.70;85.40;;;;;;7283605;19;20188;-79
2023/05/30 09:31:26;;;;;;;12.07;3.47;;;27.00;85.80;;;;;;7282926;19;20306;-79
2023/05/30 09:33:53;;;;;;;11.93;3.53;;;27.10;82.20;;;;;;7282280;19;20683;-79
2023/05/30 09:36:20;;;;;;;13.73;3.88;;;27.20;78.80;;;;;;7286519;19;20261;-79
2023/05/30 09:38:57;;;;;;;13.32;3.90;;;26.00;79.50;;;;;;7304594;19;20621;-80
2023/05/30 09:41:25;;;;;;;15.75;3.88;;;26.10;83.20;;;;;;7180573;19;2004615;-80
2023/05/30 09:43:53;;;;;;;15.25;3.85;;;26.10;83.60;;;;;;7283202;19;20185;-80
2023/05/30 09:46:20;;;;;;;12.93;4.10;;;26.10;82.10;;;;;;7287206;19;20184;-79
2023/05/30 09:48:46;;;;;;;11.20;3.45;;;25.60;80.40;;;;;;7306563;19;20184;-80
2023/05/30 09:51:12;;;;;;;17.13;4.28;;;25.70;81.90;;;;;;7282900;19;20177;-79
2023/05/30 09:53:37;;;;;;;16.80;4.38;;;25.40;82.30;;;;;;7282080;19;20903;-80
2023/05/30 09:56:05;;;;;;;12.80;4.13;;;25.00;82.50;;;;;;7282765;19;20692;-81
2023/05/30 09:58:30;;;;;;;12.25;4.13;;;25.00;80.50;;;;;;7282554;19;20217;-80
2023/05/30 10:00:57;;;;;;;13.32;4.38;;;24.70;81.50;;;;;;7282095;19;20188;-80
2023/05/30 10:03:44;;;;;;;11.20;3.85;;;24.80;82.20;;;;;;7283204;19;20181;-80
2023/05/30 10:06:15;;;;;;;13.98;4.03;;;25.60;80.10;;;;;;7281123;19;20318;-80
2023/05/30 10:08:45;;;;;;;13.02;4.18;;;26.10;80.30;;;;;;7282642;19;20181;-80
2023/05/30 10:11:15;;;;;;;13.32;4.22;;;27.50;80.50;;;;;;7281095;19;20210;-82
2023/05/30 10:13:41;;;;;;;18.52;4.90;;;28.10;75.00;;;;;;7285791;19;20208;-80
2023/05/30 10:16:17;;;;;;;15.90;4.60;;;26.70;73.80;;;;;;7289176;19;21192;-81
2023/05/30 10:18:53;;;;;;;13.40;4.53;;;25.40;75.30;;;;;;7288500;19;20579;-80
2023/05/30 10:21:22;;;;;;;12.82;4.10;;;24.70;78.00;;;;;;7268680;19;20576;-79
2023/05/30 10:23:48;;;;;;;14.48;4.30;;;25.20;80.40;;;;;;7304673;19;20245;-79
2023/05/30 10:26:16;;;;;;;15.82;4.90;;;27.00;81.00;;;;;;7310131;19;20657;-80
2023/05/30 10:28:46;;;;;;;14.05;5.00;;;26.60;74.60;;;;;;7292692;19;20533;-81
2023/05/30 10:31:12;;;;;;;12.32;4.38;;;25.60;77.40;;;;;;7289724;19;20189;-80
2023/05/30 10:33:41;;;;;;;15.57;5.32;;;24.90;78.30;;;;;;7286352;19;20217;-80
2023/05/30 10:36:08;;;;;;;14.75;4.95;;;25.80;79.10;;;;;;7289913;19;20248;-80
2023/05/30 10:38:43;;;;;;;14.25;5.05;;;26.30;78.30;;;;;;7289312;19;20302;-80
2023/05/30 10:41:34;;;;;;;15.68;4.75;;;26.20;77.10;;;;;;7287822;19;20214;-80
2023/05/30 10:44:34;;;;;;;18.02;5.20;;;26.30;78.20;;;;;;7190572;19;2004778;-80
2023/05/30 10:47:21;;;;;;;11.50;4.60;;;26.30;77.20;;;;;;7186403;19;2004622;-80
2023/05/30 10:49:49;;;;;;;13.32;5.40;;;25.90;75.30;;;;;;7292425;19;20199;-80
2023/05/30 10:52:17;;;;;;;13.18;4.60;;;25.90;76.40;;;;;;7293021;19;20215;-80
2023/05/30 10:54:46;;;;;;;13.75;4.57;;;27.10;74.20;;;;;;7291018;19;20753;-80
2023/05/30 10:57:20;;;;;;;10.15;5.07;;;27.60;75.50;;;;;;7289015;19;20652;-80
2023/05/30 10:59:46;;;;;;;12.85;5.00;;;28.00;72.60;;;;;;7286200;19;20212;-80
2023/05/30 11:02:20;;;;;;;11.48;5.20;;;27.70;74.10;;;;;;7288789;19;20686;-80
2023/05/30 11:04:49;;;;;;;12.95;5.05;;;27.90;75.60;;;;;;7288240;19;20248;-80
2023/05/30 11:07:17;;;;;;;13.75;5.03;;;28.10;73.10;;;;;;7288551;19;20208;-80
2023/05/30 11:10:01;;;;;;;16.35;5.22;;;28.20;75.60;;;;;;7288465;19;20181;-80
2023/05/30 11:12:27;;;;;;;17.63;5.47;;;28.80;71.70;;;;;;7183993;19;2004801;-79
2023/05/30 11:14:57;;;;;;;13.93;5.03;;;27.90;71.10;;;;;;7288680;19;20193;-80
2023/05/30 11:17:37;;;;;;;16.73;6.18;;;27.30;78.10;;;;;;7288367;19;20215;-79
2023/05/30 11:20:24;;;;;;;14.35;5.95;;;27.20;73.60;;;;;;7288290;19;20204;-80
2023/05/30 11:23:01;;;;;;;18.50;5.65;;;27.10;74.50;;;;;;7266862;19;20274;-79
2023/05/30 11:25:29;;;;;;;16.05;5.57;;;26.60;76.50;;;;;;7284856;19;20610;-80
2023/05/30 11:28:04;;;;;;;13.65;5.68;;;26.70;75.80;;;;;;7287224;19;20248;-80
2023/05/30 11:30:30;;;;;;;14.13;5.82;;;26.10;76.00;;;;;;7287135;19;20192;-79
2023/05/30 11:32:59;;;;;;;15.88;5.60;;;25.80;74.90;;;;;;7286213;19;20185;-79
2023/05/30 11:35:29;;;;;;;12.60;4.80;;;25.70;75.40;;;;;;7286587;19;20181;-79
2023/05/30 11:37:56;;;;;;;13.63;5.65;;;25.80;74.20;;;;;;7286378;19;20181;-80
2023/05/30 11:40:23;;;;;;;13.40;5.30;;;25.40;74.20;;;;;;7283605;19;22364;-80
2023/05/30 11:42:52;;;;;;;15.63;6.03;;;25.60;75.70;;;;;;7298782;19;20277;-79
2023/05/30 11:45:25;;;;;;;12.50;4.93;;;25.50;73.70;;;;;;7298193;19;20188;-80
2023/05/30 11:47:51;;;;;;;13.80;5.55;;;25.00;78.30;;;;;;7286241;19;20214;-80
2023/05/30 11:50:21;;;;;;;16.25;5.53;;;25.50;80.60;;;;;;7307980;19;20708;-80
2023/05/30 11:52:47;;;;;;;12.68;5.80;;;26.30;79.50;;;;;;7286533;19;20300;-80
2023/05/30 11:55:12;;;;;;;15.70;5.93;;;26.30;79.70;;;;;;7286781;19;20185;-80
2023/05/30 11:57:38;;;;;;;13.43;5.47;;;26.70;82.80;;;;;;7286255;19;20701;-81
2023/05/30 12:00:11;;;;;;;13.80;5.30;;;26.60;80.60;;;;;;7286126;19;20192;-81
2023/05/30 12:02:40;;;;;;;13.75;5.57;;;26.00;78.20;;;;;;7287336;19;20213;-81
2023/05/30 12:05:06;;;;;;;15.68;6.07;;;25.40;80.60;;;;;;7286013;19;20189;-80
2023/05/30 12:07:33;;;;;;;13.05;5.97;;;24.80;81.40;;;;;;7286445;19;20200;-80
2023/05/30 12:09:59;;;;;;;15.02;6.20;;;24.30;82.80;;;;;;7286677;19;20224;-80
2023/05/30 12:12:26;;;;;;;14.60;5.97;;;23.90;85.50;;;;;;7284874;19;20181;-80
2023/05/30 12:14:53;;;;;;;17.23;6.57;;;23.70;87.20;;;;;;7284942;19;20184;-80
2023/05/30 12:17:21;;;;;;;16.27;7.00;;;23.60;87.20;;;;;;7298497;19;20205;-79
2023/05/30 12:19:59;;;;;;;16.20;6.55;;;23.40;87.10;;;;;;7305902;19;20192;-80
2023/05/30 12:22:26;;;;;;;14.18;6.35;;;23.10;87.80;;;;;;7183453;19;2004677;-80
2023/05/30 12:24:52;;;;;;;14.40;6.00;;;22.50;87.10;;;;;;7285332;19;20177;-80
2023/05/30 12:27:22;;;;;;;15.07;6.93;;;22.20;90.70;;;;;;7302225;19;20229;-79
2023/05/30 12:29:49;;;;;;;16.10;7.53;;;22.00;90.40;;;;;;7298742;19;20189;-79
2023/05/30 12:32:22;;;;;;;17.13;7.50;;;21.80;91.20;;;;;;7306377;19;20923;-80
2023/05/30 12:34:48;;;;;;;17.70;7.57;;;21.50;92.00;;;;;;7279597;19;20232;-79
2023/05/30 12:37:16;;;;;;;16.43;6.83;;;21.60;92.90;;;;;;7303335;19;20184;-80
2023/05/30 12:40:02;;;;;;;17.37;7.17;;;21.70;94.90;;;;;;7283444;19;20195;-80